Hamilton, New Jersey
Current Conditions -  °F | °C
As of 10:53 AM on Monday 22 Dec 2014 (Local Time) from KTTN Reporting Station
Broken Clouds Broken Clouds  
Wind Chill:   Ceiling: 2000
Heat Index:   Visibility: 8mi
Dew Point:   Wind: 8mph
Humidity: 67%   Direction: 50°NE
Pressure: 30.29"   Gusts: NA
Location:  40.1953°N, 74.7126°W
Report Text: KTTN 221553Z 05007KT 8SM BKN020 06/00 A3029 RMK AO2 SLP253 T00560000 $
Loading
Personal Weather Stations






























Interactive Weather Map New forecast layout! Learn more

10-Day Weather Forecast

Advertisements
Track Severe Weather on mobile